Time;durP1;ratioP1;P1;durP2;ratioP2;P2;SDS_P1;SDS_P2;PMS_P1;PMS_P2;Temp;Humidity;BMP_temperature;BMP_pressure;BME280_temperature;BME280_humidity;BME280_pressure;Samples;Min_cycle;Max_cycle;Signal;HPM_P1;HPM_P2
2021/01/12 00:00:20;;;;;;;12.20;9.70;;;4.90;99.90;;;;;;5003045;28;20620;-45
2021/01/12 00:02:45;;;;;;;16.73;11.97;;;4.90;99.90;;;;;;5006789;28;20197;-48
2021/01/12 00:05:11;;;;;;;15.70;11.83;;;5.00;99.90;;;;;;5002508;28;20179;-45
2021/01/12 00:07:37;;;;;;;14.87;11.37;;;4.90;99.90;;;;;;5002856;28;20181;-49
2021/01/12 00:10:07;;;;;;;16.63;11.60;;;5.00;99.90;;;;;;5000508;28;20168;-48
2021/01/12 00:12:34;;;;;;;14.37;10.90;;;5.00;99.90;;;;;;5007632;28;20314;-47
2021/01/12 00:14:59;;;;;;;16.23;11.83;;;5.00;99.90;;;;;;5004566;28;20291;-44
2021/01/12 00:17:25;;;;;;;15.30;11.33;;;5.00;99.90;;;;;;5015323;28;20647;-47
2021/01/12 00:19:51;;;;;;;16.17;12.23;;;5.10;99.90;;;;;;5019231;28;20168;-51
2021/01/12 00:22:18;;;;;;;15.97;11.87;;;5.10;99.90;;;;;;5023144;28;20195;-43
2021/01/12 00:24:45;;;;;;;17.37;11.63;;;5.10;99.90;;;;;;5020712;28;20168;-45
2021/01/12 00:27:11;;;;;;;15.33;11.53;;;5.10;99.90;;;;;;5013632;28;20176;-45
2021/01/12 00:29:37;;;;;;;19.47;12.60;;;5.20;99.90;;;;;;5018539;28;20539;-48
2021/01/12 00:32:03;;;;;;;16.40;11.83;;;5.20;99.90;;;;;;5012057;28;20752;-45
2021/01/12 00:34:28;;;;;;;14.17;11.33;;;5.20;99.90;;;;;;5019018;28;20176;-45
2021/01/12 00:36:53;;;;;;;16.63;12.40;;;5.20;99.90;;;;;;5022734;28;20231;-45
2021/01/12 00:39:20;;;;;;;18.03;12.33;;;5.30;99.90;;;;;;5026807;28;20172;-45
2021/01/12 00:41:56;;;;;;;14.97;10.63;;;5.30;99.90;;;;;;5023982;28;20758;-46
2021/01/12 00:44:22;;;;;;;14.00;11.30;;;5.30;99.90;;;;;;5022447;28;20179;-47
2021/01/12 00:46:48;;;;;;;16.13;12.33;;;5.30;99.90;;;;;;5013029;28;20172;-52
2021/01/12 00:49:16;;;;;;;18.17;12.37;;;5.40;99.90;;;;;;5014737;28;20192;-48
2021/01/12 00:51:42;;;;;;;15.00;11.73;;;5.40;99.90;;;;;;5004692;28;20197;-47
2021/01/12 00:54:18;;;;;;;19.67;12.90;;;5.40;99.90;;;;;;5006869;28;20171;-45
2021/01/12 00:56:44;;;;;;;13.40;10.70;;;5.50;99.90;;;;;;5015410;28;20237;-49
2021/01/12 00:59:10;;;;;;;17.23;13.20;;;5.50;99.90;;;;;;5020771;28;20200;-45
2021/01/12 01:01:39;;;;;;;16.50;11.97;;;5.50;99.90;;;;;;5023291;28;20207;-51
2021/01/12 01:04:05;;;;;;;16.37;13.37;;;5.60;99.90;;;;;;5009412;28;20189;-46
2021/01/12 01:06:31;;;;;;;14.67;10.93;;;5.60;99.90;;;;;;5026293;28;20234;-47
2021/01/12 01:08:57;;;;;;;15.33;11.63;;;5.60;99.90;;;;;;5022297;28;20184;-46
2021/01/12 01:11:23;;;;;;;16.77;13.00;;;5.60;99.90;;;;;;5026416;28;20183;-45
2021/01/12 01:13:48;;;;;;;16.10;12.13;;;5.70;99.90;;;;;;5016968;28;20211;-48
2021/01/12 01:16:14;;;;;;;15.07;11.80;;;5.70;99.90;;;;;;5019281;28;20237;-44
2021/01/12 01:18:40;;;;;;;15.20;11.37;;;5.70;99.90;;;;;;5007282;28;20287;-49
2021/01/12 01:21:05;;;;;;;12.50;9.80;;;5.70;99.90;;;;;;5020211;28;20238;-45
2021/01/12 01:23:31;;;;;;;10.90;8.63;;;5.80;99.90;;;;;;5026174;28;20200;-45
2021/01/12 01:25:57;;;;;;;12.43;9.77;;;5.80;99.90;;;;;;5014817;28;20230;-45
2021/01/12 01:28:24;;;;;;;13.23;10.03;;;5.90;99.90;;;;;;5025319;28;20180;-45
2021/01/12 01:30:52;;;;;;;10.67;9.17;;;5.90;99.90;;;;;;5018325;28;20641;-47
2021/01/12 01:33:17;;;;;;;10.83;9.33;;;5.90;99.90;;;;;;5014170;28;20212;-44
2021/01/12 01:35:43;;;;;;;12.30;9.23;;;5.90;99.90;;;;;;5015120;28;20502;-47
2021/01/12 01:38:09;;;;;;;6.33;5.10;;;6.00;99.90;;;;;;5024514;28;20203;-44
2021/01/12 01:40:34;;;;;;;10.37;8.07;;;5.90;99.90;;;;;;5023826;28;20177;-49
2021/01/12 01:43:00;;;;;;;10.53;8.73;;;6.00;99.90;;;;;;5022064;28;20913;-44
2021/01/12 01:45:26;;;;;;;9.33;7.43;;;6.00;99.90;;;;;;5017674;28;20176;-50
2021/01/12 01:47:52;;;;;;;10.10;8.90;;;6.00;99.90;;;;;;5005274;28;20215;-46
2021/01/12 01:50:20;;;;;;;10.60;8.53;;;6.00;99.90;;;;;;5015298;28;20192;-46
2021/01/12 01:52:53;;;;;;;11.03;9.03;;;6.00;99.90;;;;;;5022754;28;20703;-48
2021/01/12 01:55:20;;;;;;;9.73;8.50;;;6.00;99.90;;;;;;5023422;28;20196;-44
2021/01/12 01:57:45;;;;;;;9.73;8.17;;;6.00;99.90;;;;;;5016641;28;20294;-47
2021/01/12 02:00:14;;;;;;;8.93;7.23;;;6.00;99.90;;;;;;5024318;28;20322;-46
2021/01/12 02:03:14;;;;;;;11.40;8.57;;;6.00;99.90;;;;;;5018974;28;20265;-47
2021/01/12 02:05:42;;;;;;;7.50;6.17;;;6.00;99.90;;;;;;5004252;28;20197;-48
2021/01/12 02:08:17;;;;;;;8.47;6.70;;;6.00;99.90;;;;;;5020916;28;20180;-46
2021/01/12 02:10:47;;;;;;;6.87;6.17;;;6.10;99.90;;;;;;5022784;28;20211;-48
2021/01/12 02:13:20;;;;;;;7.70;6.27;;;6.10;99.90;;;;;;5023194;28;20208;-47
2021/01/12 02:15:46;;;;;;;9.30;6.37;;;6.10;99.90;;;;;;5016643;28;20210;-50
2021/01/12 02:18:12;;;;;;;7.53;6.37;;;6.10;99.90;;;;;;5020059;28;20212;-45
2021/01/12 02:20:41;;;;;;;8.70;6.83;;;6.10;99.90;;;;;;5003002;28;20245;-47
2021/01/12 02:23:18;;;;;;;7.13;6.40;;;6.10;99.90;;;;;;5006398;28;20185;-45
2021/01/12 02:25:46;;;;;;;8.13;7.00;;;6.10;99.90;;;;;;5012098;28;20653;-46
2021/01/12 02:28:17;;;;;;;7.93;6.57;;;6.10;99.90;;;;;;5021514;28;20192;-48
2021/01/12 02:30:43;;;;;;;7.60;6.67;;;6.10;99.90;;;;;;5022935;28;20242;-48
2021/01/12 02:33:08;;;;;;;7.77;6.27;;;6.10;99.90;;;;;;5023554;28;20203;-46
2021/01/12 02:35:39;;;;;;;9.07;7.63;;;6.10;99.90;;;;;;5007811;28;20641;-49
2021/01/12 02:38:04;;;;;;;7.90;6.80;;;6.10;99.90;;;;;;5014121;28;20211;-45
2021/01/12 02:40:30;;;;;;;10.83;7.30;;;6.10;99.90;;;;;;5023824;28;20183;-46
2021/01/12 02:42:56;;;;;;;8.13;7.10;;;6.10;99.90;;;;;;5010238;28;20767;-45
2021/01/12 02:45:21;;;;;;;8.93;7.00;;;6.10;99.90;;;;;;5013081;28;20181;-48
2021/01/12 02:47:47;;;;;;;7.53;6.43;;;6.10;99.90;;;;;;5001700;28;20672;-50
2021/01/12 02:50:15;;;;;;;8.27;6.57;;;6.10;99.90;;;;;;4998906;28;20242;-46
2021/01/12 02:52:41;;;;;;;7.13;6.10;;;6.10;99.90;;;;;;5013781;28;20192;-48
2021/01/12 02:55:12;;;;;;;7.27;5.63;;;6.10;99.90;;;;;;5022871;28;20172;-45
2021/01/12 02:57:38;;;;;;;7.30;6.30;;;6.10;99.90;;;;;;5022887;28;20272;-49
2021/01/12 03:00:09;;;;;;;6.43;5.73;;;6.10;99.90;;;;;;5020892;28;20965;-45
2021/01/12 03:02:35;;;;;;;7.53;5.90;;;6.10;99.90;;;;;;5016318;28;20192;-48
2021/01/12 03:05:00;;;;;;;7.83;6.20;;;6.10;99.90;;;;;;5016688;28;20180;-46
2021/01/12 03:07:26;;;;;;;7.60;6.27;;;6.10;99.90;;;;;;5009088;28;20554;-44
2021/01/12 03:09:52;;;;;;;6.70;6.03;;;6.10;99.90;;;;;;5014649;28;20251;-46
2021/01/12 03:12:17;;;;;;;5.77;4.43;;;6.10;99.90;;;;;;5024211;28;20274;-44
2021/01/12 03:14:43;;;;;;;4.93;4.43;;;6.10;99.90;;;;;;5013358;28;20261;-49
2021/01/12 03:17:13;;;;;;;7.77;5.60;;;6.10;99.90;;;;;;5022580;28;20941;-44
2021/01/12 03:19:38;;;;;;;5.80;4.63;;;6.10;99.90;;;;;;5018170;28;20253;-47
2021/01/12 03:22:04;;;;;;;5.27;4.77;;;6.10;99.90;;;;;;5009423;28;20203;-44
2021/01/12 03:24:30;;;;;;;6.17;5.07;;;6.10;99.90;;;;;;5023962;28;20305;-48
2021/01/12 03:26:55;;;;;;;5.90;5.30;;;6.20;99.90;;;;;;5019956;28;20172;-45
2021/01/12 03:29:21;;;;;;;7.43;5.63;;;6.10;99.90;;;;;;5023567;28;20188;-49
2021/01/12 03:31:46;;;;;;;5.80;4.93;;;6.20;99.90;;;;;;5012604;28;20192;-50
2021/01/12 03:34:12;;;;;;;7.40;5.73;;;6.20;99.90;;;;;;5023129;28;20172;-45
2021/01/12 03:36:37;;;;;;;6.83;5.90;;;6.20;99.90;;;;;;5013909;28;20675;-48
2021/01/12 03:39:04;;;;;;;6.60;5.23;;;6.20;99.90;;;;;;5003330;28;20296;-45
2021/01/12 03:41:31;;;;;;;6.53;5.77;;;6.20;99.90;;;;;;5004048;28;20268;-44
2021/01/12 03:43:57;;;;;;;5.93;5.17;;;6.20;99.90;;;;;;5012320;28;20912;-46
2021/01/12 03:46:23;;;;;;;6.77;6.13;;;6.20;99.90;;;;;;5022850;28;20183;-46
2021/01/12 03:48:49;;;;;;;6.20;5.53;;;6.20;99.90;;;;;;5019958;28;20317;-48
2021/01/12 03:51:14;;;;;;;5.57;5.07;;;6.20;99.90;;;;;;5018611;28;20184;-45
2021/01/12 03:53:40;;;;;;;6.73;5.97;;;6.20;99.90;;;;;;5005272;28;20212;-48
2021/01/12 03:56:05;;;;;;;7.63;5.33;;;6.20;99.90;;;;;;5009782;28;20160;-44
2021/01/12 03:58:30;;;;;;;5.97;5.37;;;6.20;99.90;;;;;;5004950;28;20662;-44
2021/01/12 04:00:56;;;;;;;6.03;4.53;;;6.20;99.90;;;;;;5012368;28;20173;-45
2021/01/12 04:03:21;;;;;;;4.93;4.53;;;6.20;99.90;;;;;;5010598;28;20981;-48
2021/01/12 04:05:47;;;;;;;4.60;4.20;;;6.20;99.90;;;;;;4999771;28;20176;-48
2021/01/12 04:08:13;;;;;;;6.37;5.27;;;6.20;99.90;;;;;;5011604;28;20192;-46
2021/01/12 04:10:38;;;;;;;5.77;4.30;;;6.20;99.90;;;;;;5001475;28;20254;-46
2021/01/12 04:13:04;;;;;;;4.90;4.37;;;6.30;99.90;;;;;;5004417;28;20207;-48
2021/01/12 04:15:29;;;;;;;6.13;4.20;;;6.30;99.90;;;;;;5004041;28;20191;-46
2021/01/12 04:17:55;;;;;;;3.80;3.43;;;6.30;99.90;;;;;;4999714;28;20200;-44
2021/01/12 04:20:20;;;;;;;4.00;3.60;;;6.20;99.90;;;;;;5003620;28;20207;-44
2021/01/12 04:22:46;;;;;;;5.13;4.20;;;6.30;99.90;;;;;;5005277;28;20212;-48
2021/01/12 04:25:12;;;;;;;4.93;4.03;;;6.30;99.90;;;;;;5002214;28;20189;-47
2021/01/12 04:27:37;;;;;;;3.87;3.37;;;6.30;99.90;;;;;;5009469;28;20767;-48
2021/01/12 04:30:04;;;;;;;3.83;3.53;;;6.30;99.90;;;;;;5014114;28;20176;-45
2021/01/12 04:32:30;;;;;;;3.87;3.47;;;6.30;99.90;;;;;;5015162;28;20696;-45
2021/01/12 04:34:56;;;;;;;2.27;2.13;;;6.30;99.90;;;;;;5005880;28;20180;-44
2021/01/12 04:37:21;;;;;;;2.03;1.83;;;6.20;99.90;;;;;;5015519;28;20212;-46
2021/01/12 04:39:47;;;;;;;2.07;1.87;;;6.20;99.90;;;;;;4999008;28;20200;-48
2021/01/12 04:42:12;;;;;;;1.60;1.50;;;6.20;99.90;;;;;;5022166;28;20195;-46
2021/01/12 04:44:37;;;;;;;3.80;1.40;;;6.10;99.90;;;;;;5011387;28;20172;-46
2021/01/12 04:47:05;;;;;;;1.43;1.27;;;6.10;99.90;;;;;;5006346;28;20267;-46
2021/01/12 04:49:31;;;;;;;1.63;1.17;;;6.00;99.90;;;;;;5004631;28;20180;-49
2021/01/12 04:51:57;;;;;;;3.03;0.93;;;6.00;99.90;;;;;;5008495;28;20257;-46
2021/01/12 04:54:30;;;;;;;1.27;1.17;;;6.00;99.90;;;;;;5009915;28;20657;-49
2021/01/12 04:56:56;;;;;;;2.63;1.00;;;5.90;99.90;;;;;;5012214;28;20192;-45
2021/01/12 04:59:30;;;;;;;1.17;1.07;;;5.90;99.90;;;;;;5006798;28;20192;-50
2021/01/12 05:01:57;;;;;;;1.33;1.20;;;5.90;99.90;;;;;;5014222;28;20211;-45
2021/01/12 05:04:22;;;;;;;2.63;1.50;;;5.90;99.90;;;;;;5019746;28;20690;-46
2021/01/12 05:06:48;;;;;;;2.13;1.23;;;5.80;99.90;;;;;;5020432;28;20168;-49
2021/01/12 05:09:19;;;;;;;2.13;1.00;;;5.90;99.90;;;;;;5018168;28;20196;-52
2021/01/12 05:11:45;;;;;;;2.73;1.30;;;5.80;99.90;;;;;;5011961;28;20207;-50
2021/01/12 05:14:13;;;;;;;2.00;1.20;;;5.70;99.90;;;;;;5014379;28;20172;-51
2021/01/12 05:16:53;;;;;;;1.07;0.97;;;5.70;99.90;;;;;;5013756;28;20181;-44
2021/01/12 05:19:29;;;;;;;1.17;0.60;;;5.70;99.90;;;;;;5021538;28;20181;-50
2021/01/12 05:22:05;;;;;;;1.40;0.90;;;5.60;99.90;;;;;;5017050;28;20242;-45
2021/01/12 05:24:43;;;;;;;2.97;0.77;;;5.60;99.90;;;;;;5016341;28;20199;-48
2021/01/12 05:27:10;;;;;;;1.70;0.83;;;5.60;99.90;;;;;;5006826;28;20249;-46
2021/01/12 05:29:38;;;;;;;3.13;1.23;;;5.60;99.90;;;;;;5014245;28;20898;-45
2021/01/12 05:32:08;;;;;;;3.97;1.17;;;5.60;99.90;;;;;;5022354;28;20208;-47
2021/01/12 05:34:38;;;;;;;1.93;1.10;;;5.50;99.90;;;;;;5009758;28;20336;-48
2021/01/12 05:37:06;;;;;;;1.40;1.30;;;5.50;99.90;;;;;;5005929;28;20219;-47
2021/01/12 05:39:39;;;;;;;3.07;1.30;;;5.50;99.90;;;;;;5007344;28;20207;-45
2021/01/12 05:42:08;;;;;;;0.77;0.63;;;5.50;99.90;;;;;;5009115;28;20506;-46
2021/01/12 05:44:38;;;;;;;2.47;0.80;;;5.40;99.90;;;;;;5008601;28;20936;-46
2021/01/12 05:47:04;;;;;;;0.83;0.83;;;5.30;99.90;;;;;;5021615;28;20188;-44
2021/01/12 05:49:29;;;;;;;0.60;0.23;;;5.10;99.90;;;;;;5022200;28;20218;-51
2021/01/12 05:51:55;;;;;;;3.53;0.30;;;4.90;99.90;;;;;;5023463;28;20541;-46
2021/01/12 05:54:26;;;;;;;1.47;0.40;;;4.80;99.90;;;;;;5022420;28;20527;-47
2021/01/12 05:56:56;;;;;;;1.43;0.40;;;4.70;99.90;;;;;;5010098;28;20277;-48
2021/01/12 05:59:33;;;;;;;0.60;0.40;;;4.70;99.90;;;;;;5018172;28;20196;-48
2021/01/12 06:02:09;;;;;;;4.57;0.40;;;4.60;99.90;;;;;;5025527;28;20238;-44
2021/01/12 06:04:35;;;;;;;5.47;0.53;;;4.50;99.90;;;;;;5015746;28;20194;-45
2021/01/12 06:07:02;;;;;;;1.17;0.30;;;4.40;99.90;;;;;;5025160;28;20230;-45
2021/01/12 06:09:27;;;;;;;1.30;0.27;;;4.40;99.90;;;;;;5021990;28;20184;-47
2021/01/12 06:11:54;;;;;;;2.07;0.30;;;4.30;99.90;;;;;;5003633;28;20305;-45
2021/01/12 06:14:21;;;;;;;2.60;0.30;;;4.30;99.90;;;;;;5022340;28;20212;-46
2021/01/12 06:16:48;;;;;;;0.43;0.20;;;4.20;99.90;;;;;;5022468;28;20187;-45
2021/01/12 06:19:24;;;;;;;0.20;0.20;;;4.10;99.90;;;;;;5015190;28;20340;-43
2021/01/12 06:21:55;;;;;;;0.47;0.10;;;4.10;99.90;;;;;;5023605;28;20290;-49
2021/01/12 06:24:36;;;;;;;0.30;0.20;;;4.10;99.90;;;;;;5018275;28;20192;-44
2021/01/12 06:27:06;;;;;;;1.30;0.40;;;3.90;99.90;;;;;;5007295;28;20172;-46
2021/01/12 06:29:32;;;;;;;4.27;0.40;;;3.90;99.90;;;;;;5023383;28;20188;-49
2021/01/12 06:31:57;;;;;;;0.40;0.10;;;3.80;99.90;;;;;;5022600;28;20192;-49
2021/01/12 06:34:24;;;;;;;0.63;0.20;;;3.70;99.90;;;;;;5016595;28;20182;-44
2021/01/12 06:36:51;;;;;;;1.00;0.30;;;3.60;99.90;;;;;;5004285;28;20181;-48
2021/01/12 06:39:21;;;;;;;0.77;0.30;;;3.50;99.90;;;;;;5000851;28;20184;-44
2021/01/12 06:41:48;;;;;;;0.57;0.37;;;3.50;99.90;;;;;;5019622;28;20199;-47
2021/01/12 06:44:22;;;;;;;0.80;0.20;;;3.50;99.90;;;;;;5006997;28;20895;-46
2021/01/12 06:46:50;;;;;;;1.10;0.20;;;3.50;99.90;;;;;;5016215;28;20263;-48
2021/01/12 06:49:18;;;;;;;3.43;0.50;;;3.40;99.90;;;;;;5017418;28;20185;-44
2021/01/12 06:51:44;;;;;;;2.07;0.27;;;3.50;99.90;;;;;;5024457;28;20188;-44
2021/01/12 06:54:13;;;;;;;2.47;0.30;;;3.50;99.90;;;;;;5020638;28;20160;-46
2021/01/12 06:56:41;;;;;;;0.67;0.23;;;3.50;99.90;;;;;;5015020;28;20185;-45
2021/01/12 06:59:14;;;;;;;0.83;0.30;;;3.50;99.90;;;;;;5007402;28;20291;-50
2021/01/12 07:01:40;;;;;;;0.70;0.40;;;3.50;99.90;;;;;;5013741;28;20173;-46
2021/01/12 07:04:06;;;;;;;1.60;0.30;;;3.50;99.90;;;;;;5012590;28;20180;-47
2021/01/12 07:06:33;;;;;;;1.33;0.43;;;3.60;99.90;;;;;;5020394;28;20243;-46
2021/01/12 07:09:01;;;;;;;2.90;0.73;;;3.60;99.90;;;;;;5021732;28;20191;-48
2021/01/12 07:11:27;;;;;;;2.13;0.50;;;3.60;99.90;;;;;;5013788;28;20193;-46
2021/01/12 07:13:52;;;;;;;3.40;0.43;;;3.60;99.90;;;;;;5011014;28;20202;-47
2021/01/12 07:16:18;;;;;;;2.60;0.50;;;3.60;99.90;;;;;;5003752;28;20302;-44
2021/01/12 07:18:44;;;;;;;0.50;0.30;;;3.60;99.90;;;;;;5017655;28;20250;-45
2021/01/12 07:21:13;;;;;;;1.17;0.37;;;3.60;99.90;;;;;;5013557;28;20176;-47
2021/01/12 07:23:40;;;;;;;4.30;0.73;;;3.60;99.90;;;;;;5017082;28;20196;-46
2021/01/12 07:26:07;;;;;;;1.67;0.60;;;3.60;99.90;;;;;;5015597;28;20176;-47
2021/01/12 07:28:33;;;;;;;4.60;0.60;;;3.60;99.90;;;;;;5013229;28;20184;-45
2021/01/12 07:30:59;;;;;;;0.60;0.50;;;3.60;99.90;;;;;;5001839;28;20797;-48
2021/01/12 07:33:26;;;;;;;2.00;0.80;;;3.70;99.90;;;;;;5013325;28;20211;-45
2021/01/12 07:35:53;;;;;;;3.10;0.80;;;3.70;99.90;;;;;;5012559;28;20188;-48
2021/01/12 07:38:24;;;;;;;4.03;1.13;;;3.70;99.90;;;;;;5020497;28;20891;-47
2021/01/12 07:40:51;;;;;;;2.43;0.83;;;3.70;99.90;;;;;;5022844;28;20652;-54
2021/01/12 07:43:19;;;;;;;2.33;1.13;;;3.70;99.90;;;;;;5005204;28;20207;-45
2021/01/12 07:45:46;;;;;;;5.50;1.13;;;3.70;99.90;;;;;;5006343;28;20215;-43
2021/01/12 07:48:13;;;;;;;2.87;0.80;;;3.80;99.90;;;;;;5008101;28;20195;-46
2021/01/12 07:50:42;;;;;;;5.60;0.80;;;3.80;99.90;;;;;;5003795;28;20239;-45
2021/01/12 07:53:08;;;;;;;7.43;0.93;;;3.80;99.90;;;;;;5014143;28;20231;-46
2021/01/12 07:55:38;;;;;;;2.37;0.97;;;3.70;99.90;;;;;;5023943;28;20539;-47
2021/01/12 07:58:03;;;;;;;3.07;0.57;;;3.70;99.90;;;;;;5005317;28;20212;-46
2021/01/12 08:00:29;;;;;;;1.20;0.47;;;3.70;99.90;;;;;;5001248;28;20598;-50
2021/01/12 08:02:55;;;;;;;6.77;0.80;;;3.70;99.90;;;;;;5018852;28;20207;-45
2021/01/12 08:05:25;;;;;;;4.20;0.87;;;3.60;99.90;;;;;;5009074;28;20188;-48
2021/01/12 08:08:02;;;;;;;1.70;0.33;;;3.60;99.90;;;;;;5011001;28;20249;-45
2021/01/12 08:10:29;;;;;;;1.80;0.60;;;3.60;99.90;;;;;;5019915;28;20255;-49
2021/01/12 08:13:14;;;;;;;2.53;0.60;;;3.70;99.90;;;;;;5011255;28;20223;-45
2021/01/12 08:15:44;;;;;;;3.77;0.70;;;3.60;99.90;;;;;;4998040;28;20175;-47
2021/01/12 08:18:16;;;;;;;1.90;0.50;;;3.60;99.90;;;;;;5016914;28;20212;-46
2021/01/12 08:20:43;;;;;;;3.27;0.83;;;3.60;99.90;;;;;;5000547;28;20169;-45
2021/01/12 08:23:11;;;;;;;4.20;1.10;;;3.60;99.90;;;;;;5006282;28;20212;-45
2021/01/12 08:25:36;;;;;;;2.40;0.80;;;3.60;99.90;;;;;;5019389;28;20225;-46
2021/01/12 08:28:04;;;;;;;6.00;0.90;;;3.60;99.90;;;;;;5018758;28;20196;-46
2021/01/12 08:30:32;;;;;;;5.47;0.80;;;3.60;99.90;;;;;;5004241;28;20211;-51
2021/01/12 08:33:22;;;;;;;3.07;0.90;;;3.70;99.90;;;;;;5013101;28;20207;-45
2021/01/12 08:36:00;;;;;;;3.30;0.90;;;3.70;99.90;;;;;;5015271;28;20246;-45
2021/01/12 08:38:28;;;;;;;4.90;0.80;;;3.70;99.90;;;;;;5016312;28;20370;-48
2021/01/12 08:40:55;;;;;;;3.03;0.83;;;3.70;99.90;;;;;;5020231;28;20948;-46
2021/01/12 08:43:27;;;;;;;3.83;0.80;;;3.70;99.90;;;;;;5019904;28;20567;-49
2021/01/12 08:45:57;;;;;;;4.67;2.23;;;3.70;99.90;;;;;;5005813;28;20189;-45
2021/01/12 08:48:22;;;;;;;2.17;0.80;;;3.70;99.90;;;;;;5019177;28;20199;-47
2021/01/12 08:50:48;;;;;;;2.23;0.60;;;3.70;99.90;;;;;;5019938;28;20188;-47
2021/01/12 08:53:15;;;;;;;6.83;0.90;;;3.70;99.90;;;;;;5025897;28;20207;-51
2021/01/12 08:55:41;;;;;;;12.07;1.57;;;3.70;99.90;;;;;;5019790;28;20894;-46
2021/01/12 08:58:07;;;;;;;4.83;0.90;;;3.70;99.90;;;;;;5023654;28;20211;-49
2021/01/12 09:00:37;;;;;;;3.03;1.07;;;3.70;99.90;;;;;;5004745;28;20204;-48
2021/01/12 09:03:04;;;;;;;5.03;1.20;;;3.70;99.90;;;;;;5018033;28;20343;-44
2021/01/12 09:05:36;;;;;;;6.27;1.23;;;3.70;99.90;;;;;;5018789;28;20180;-47
2021/01/12 09:08:12;;;;;;;3.57;0.80;;;3.70;99.90;;;;;;5026430;28;20176;-46
2021/01/12 09:10:40;;;;;;;3.87;0.70;;;3.70;99.90;;;;;;5010991;28;20238;-48
2021/01/12 09:13:09;;;;;;;4.73;0.60;;;3.70;99.90;;;;;;5026599;28;20196;-46
2021/01/12 09:15:38;;;;;;;6.07;1.17;;;3.60;99.90;;;;;;5008698;28;20184;-45
2021/01/12 09:18:23;;;;;;;2.63;0.90;;;3.60;99.90;;;;;;5005784;28;20224;-44
2021/01/12 09:20:59;;;;;;;5.07;0.97;;;3.60;99.90;;;;;;5021966;28;20191;-46
2021/01/12 09:23:26;;;;;;;3.43;0.97;;;3.50;99.90;;;;;;5016765;28;20269;-47
2021/01/12 09:26:01;;;;;;;6.97;1.00;;;3.50;99.90;;;;;;5024809;28;20688;-46
2021/01/12 09:28:31;;;;;;;6.27;1.40;;;3.50;99.90;;;;;;5019330;28;20660;-46
2021/01/12 09:31:17;;;;;;;5.07;1.47;;;3.50;99.90;;;;;;5021730;28;20206;-48
2021/01/12 09:33:50;;;;;;;2.83;0.90;;;3.50;99.90;;;;;;5005158;28;20221;-45
2021/01/12 09:36:17;;;;;;;2.53;0.90;;;3.50;99.90;;;;;;5019203;28;20609;-51
2021/01/12 09:38:53;;;;;;;4.50;0.90;;;3.50;99.90;;;;;;5017768;28;20269;-46
2021/01/12 09:41:24;;;;;;;5.70;0.77;;;3.60;99.90;;;;;;5024143;28;20184;-47
2021/01/12 09:43:50;;;;;;;4.13;0.67;;;3.70;99.90;;;;;;5020460;28;20242;-45
2021/01/12 09:46:16;;;;;;;1.90;0.67;;;3.70;99.90;;;;;;5019740;28;20188;-51
2021/01/12 09:48:43;;;;;;;0.70;0.50;;;3.80;99.90;;;;;;5009705;28;20227;-46
2021/01/12 09:51:12;;;;;;;11.67;0.93;;;3.90;99.90;;;;;;5017724;28;20192;-47
2021/01/12 09:53:48;;;;;;;5.73;0.77;;;4.00;99.90;;;;;;5021236;28;20203;-45
2021/01/12 09:56:15;;;;;;;1.23;0.50;;;4.00;99.90;;;;;;5025030;28;20221;-51
2021/01/12 09:58:41;;;;;;;1.50;0.57;;;4.00;99.90;;;;;;5015878;28;20200;-46
2021/01/12 10:01:07;;;;;;;3.57;0.50;;;4.00;99.90;;;;;;5022607;28;20176;-46
2021/01/12 10:03:32;;;;;;;2.93;0.50;;;4.00;99.90;;;;;;5003244;28;20282;-45
2021/01/12 10:05:58;;;;;;;4.93;1.13;;;4.10;99.90;;;;;;5021040;28;20275;-44
2021/01/12 10:08:25;;;;;;;3.67;0.73;;;4.10;99.90;;;;;;5022593;28;20191;-51
2021/01/12 10:10:52;;;;;;;2.60;1.20;;;4.10;99.90;;;;;;5024033;28;20859;-45
2021/01/12 10:13:17;;;;;;;4.67;1.07;;;4.10;99.90;;;;;;5018372;28;20215;-47
2021/01/12 10:15:43;;;;;;;6.77;0.80;;;4.20;99.90;;;;;;5018593;28;20234;-50
2021/01/12 10:18:08;;;;;;;5.83;0.90;;;4.20;99.90;;;;;;5018059;28;20667;-44
2021/01/12 10:20:34;;;;;;;2.50;0.90;;;4.20;99.90;;;;;;5005769;28;20243;-47
2021/01/12 10:22:59;;;;;;;5.40;0.90;;;4.20;99.90;;;;;;5017126;28;20207;-46
2021/01/12 10:25:25;;;;;;;3.60;0.70;;;4.30;99.90;;;;;;5021593;28;20196;-45
2021/01/12 10:27:50;;;;;;;2.17;0.60;;;4.30;99.90;;;;;;5023446;28;20191;-47
2021/01/12 10:30:16;;;;;;;3.03;0.80;;;4.30;99.90;;;;;;5019960;28;20680;-48
2021/01/12 10:32:46;;;;;;;3.27;1.10;;;4.30;99.90;;;;;;5017336;28;20200;-45
2021/01/12 10:35:12;;;;;;;5.53;1.10;;;4.30;99.90;;;;;;5006744;28;20176;-45
2021/01/12 10:37:37;;;;;;;4.17;0.70;;;4.30;99.90;;;;;;5009165;28;20204;-45
2021/01/12 10:40:03;;;;;;;3.17;0.80;;;4.30;99.90;;;;;;5024544;28;20231;-46
2021/01/12 10:42:29;;;;;;;3.17;0.50;;;4.40;99.90;;;;;;5017083;28;20267;-50
2021/01/12 10:44:54;;;;;;;1.80;0.50;;;4.40;99.90;;;;;;5007509;28;20181;-47
2021/01/12 10:47:20;;;;;;;3.50;0.57;;;4.40;99.90;;;;;;5011197;28;20255;-49
2021/01/12 10:49:45;;;;;;;2.20;0.63;;;4.40;99.90;;;;;;4997441;28;20188;-46
2021/01/12 10:52:11;;;;;;;7.10;0.70;;;4.50;99.90;;;;;;5011438;28;20270;-49
2021/01/12 10:54:37;;;;;;;2.23;0.47;;;4.50;99.90;;;;;;5008923;28;20166;-49
2021/01/12 10:57:07;;;;;;;1.50;0.40;;;4.50;99.90;;;;;;5024469;28;20180;-44
2021/01/12 10:59:32;;;;;;;2.83;0.80;;;4.50;99.90;;;;;;5015922;28;20188;-48
2021/01/12 11:02:01;;;;;;;3.23;0.70;;;4.60;99.90;;;;;;5024240;28;20250;-47
2021/01/12 11:04:26;;;;;;;4.47;0.40;;;4.60;99.90;;;;;;5016394;28;20194;-49
2021/01/12 11:06:52;;;;;;;5.70;0.73;;;4.70;99.90;;;;;;5002891;28;20971;-48
2021/01/12 11:09:25;;;;;;;5.77;0.50;;;4.80;99.90;;;;;;5014279;28;20172;-54
2021/01/12 11:11:51;;;;;;;1.83;0.60;;;4.70;99.90;;;;;;5022637;28;20226;-46
2021/01/12 11:14:21;;;;;;;11.37;0.97;;;4.70;99.90;;;;;;5014228;28;20176;-50
2021/01/12 11:16:47;;;;;;;5.53;0.77;;;4.70;99.90;;;;;;5018908;28;20836;-47
2021/01/12 11:19:15;;;;;;;1.33;0.60;;;4.70;99.90;;;;;;5023788;28;20231;-51
2021/01/12 11:21:48;;;;;;;5.93;1.10;;;4.80;99.90;;;;;;5002654;28;20184;-47
2021/01/12 11:24:18;;;;;;;2.17;0.47;;;4.80;99.90;;;;;;5015006;28;20192;-51
2021/01/12 11:26:44;;;;;;;3.40;0.77;;;4.80;99.90;;;;;;5021306;28;20881;-48
2021/01/12 11:29:10;;;;;;;2.33;0.53;;;4.80;99.90;;;;;;5023613;28;20178;-45
2021/01/12 11:31:36;;;;;;;2.60;0.70;;;4.80;99.90;;;;;;5015362;28;20191;-48
2021/01/12 11:34:02;;;;;;;4.23;1.00;;;4.90;99.90;;;;;;5023965;28;20203;-47
2021/01/12 11:36:45;;;;;;;2.87;0.60;;;4.90;99.90;;;;;;5015727;28;20242;-51
2021/01/12 11:39:12;;;;;;;2.67;0.70;;;4.90;99.90;;;;;;5002645;28;20208;-48
2021/01/12 11:41:45;;;;;;;2.60;0.80;;;4.90;99.90;;;;;;5017264;28;20956;-48
2021/01/12 11:44:10;;;;;;;4.93;0.90;;;4.90;99.90;;;;;;5014815;28;20180;-45
2021/01/12 11:46:36;;;;;;;5.50;0.63;;;4.90;99.90;;;;;;5016023;28;20257;-46
2021/01/12 11:49:02;;;;;;;5.17;0.83;;;5.00;99.90;;;;;;5023226;28;20223;-47
2021/01/12 11:51:35;;;;;;;4.00;0.80;;;5.00;99.90;;;;;;5013992;28;20540;-47
2021/01/12 11:54:01;;;;;;;2.57;0.60;;;5.10;99.90;;;;;;5006710;28;20192;-48
2021/01/12 11:56:26;;;;;;;2.93;0.70;;;5.10;99.90;;;;;;5020244;28;20249;-51
2021/01/12 11:58:52;;;;;;;2.37;0.90;;;5.10;99.90;;;;;;5021774;28;20254;-49
2021/01/12 12:01:17;;;;;;;3.40;0.67;;;5.10;99.90;;;;;;5016109;28;20664;-49
2021/01/12 12:03:43;;;;;;;8.03;0.60;;;5.10;99.90;;;;;;5016684;28;20830;-47
2021/01/12 12:06:11;;;;;;;6.73;0.70;;;5.20;99.90;;;;;;5018697;28;20259;-46
2021/01/12 12:08:37;;;;;;;4.17;0.60;;;5.20;99.90;;;;;;5016209;28;20188;-48
2021/01/12 12:11:02;;;;;;;3.23;0.70;;;5.20;99.90;;;;;;5010123;28;20202;-46
2021/01/12 12:13:28;;;;;;;1.00;0.50;;;5.20;99.90;;;;;;5016876;28;20216;-52
2021/01/12 12:15:54;;;;;;;2.20;0.60;;;5.30;99.90;;;;;;5002949;28;20188;-46
2021/01/12 12:18:19;;;;;;;3.23;0.70;;;5.30;99.90;;;;;;5006266;28;20216;-50
2021/01/12 12:20:45;;;;;;;5.37;0.60;;;5.30;99.90;;;;;;5014850;28;22848;-47
2021/01/12 12:23:10;;;;;;;2.57;0.70;;;5.40;99.90;;;;;;5011730;28;20204;-46
2021/01/12 12:25:36;;;;;;;4.10;0.67;;;5.40;99.90;;;;;;5001564;28;20187;-46
2021/01/12 12:28:01;;;;;;;4.67;0.87;;;5.40;99.90;;;;;;5026956;28;20176;-48
2021/01/12 12:30:27;;;;;;;6.37;0.77;;;5.40;99.90;;;;;;5023726;28;20184;-52
2021/01/12 12:32:52;;;;;;;6.20;0.80;;;5.40;99.90;;;;;;5022625;28;20321;-49
2021/01/12 12:35:19;;;;;;;3.33;0.53;;;5.40;99.90;;;;;;5025671;28;20211;-51
2021/01/12 12:37:44;;;;;;;2.27;0.50;;;5.40;99.90;;;;;;5019496;28;20211;-46
2021/01/12 12:40:10;;;;;;;1.13;0.57;;;5.40;99.90;;;;;;5026583;28;20179;-46
2021/01/12 12:42:36;;;;;;;3.63;0.40;;;5.40;99.90;;;;;;5002094;28;20203;-45
2021/01/12 12:45:02;;;;;;;2.07;0.80;;;5.40;99.90;;;;;;5013692;28;20287;-48
2021/01/12 12:47:27;;;;;;;1.20;0.43;;;5.40;99.90;;;;;;5002768;28;20199;-51
2021/01/12 12:49:53;;;;;;;9.30;0.90;;;5.40;99.90;;;;;;5024358;28;20196;-46
2021/01/12 12:52:18;;;;;;;4.07;0.80;;;5.40;99.90;;;;;;5020432;28;20222;-51
2021/01/12 12:54:44;;;;;;;3.80;0.80;;;5.40;99.90;;;;;;5015647;28;20168;-47
2021/01/12 12:57:09;;;;;;;0.80;0.50;;;5.50;99.90;;;;;;5006554;28;20899;-45